Time;durP1;ratioP1;P1;durP2;ratioP2;P2;SDS_P1;SDS_P2;PMS_P1;PMS_P2;Temp;Humidity;BMP_temperature;BMP_pressure;BME280_temperature;BME280_humidity;BME280_pressure;Samples;Min_cycle;Max_cycle;Signal;HPM_P1;HPM_P2
2022/07/05 00:00:14;;;;;;;1.38;0.30;;;19.70;62.50;;;;;;6215340;23;20008;-73
2022/07/05 00:02:40;;;;;;;1.52;0.30;;;19.80;62.60;;;;;;6163955;23;20011;-73
2022/07/05 00:05:06;;;;;;;1.35;0.40;;;19.70;62.50;;;;;;6188809;23;20001;-73
2022/07/05 00:07:32;;;;;;;0.25;0.20;;;19.80;62.60;;;;;;6164099;23;20075;-73
2022/07/05 00:09:57;;;;;;;0.35;0.20;;;19.70;62.50;;;;;;6215265;23;19996;-73
2022/07/05 00:12:29;;;;;;;0.80;0.22;;;19.80;62.50;;;;;;6188576;23;19996;-73
2022/07/05 00:14:55;;;;;;;0.32;0.20;;;19.80;62.60;;;;;;6165298;23;19997;-73
2022/07/05 00:17:21;;;;;;;0.38;0.25;;;19.80;62.80;;;;;;6189040;23;20004;-73
2022/07/05 00:19:46;;;;;;;0.40;0.30;;;19.80;62.80;;;;;;6215029;23;20452;-73
2022/07/05 00:22:12;;;;;;;0.80;0.30;;;19.70;62.90;;;;;;6215223;23;20024;-73
2022/07/05 00:24:38;;;;;;;0.63;0.20;;;19.80;62.90;;;;;;6163391;23;20004;-73
2022/07/05 00:27:04;;;;;;;0.57;0.20;;;19.70;62.90;;;;;;6188053;23;20344;-73
2022/07/05 00:29:29;;;;;;;0.30;0.10;;;19.70;62.80;;;;;;6215195;23;20517;-73
2022/07/05 00:31:55;;;;;;;0.57;0.10;;;19.70;63.00;;;;;;6188236;23;20008;-73
2022/07/05 00:34:20;;;;;;;0.85;0.20;;;19.70;63.00;;;;;;6215111;23;20004;-73
2022/07/05 00:36:46;;;;;;;0.30;0.10;;;19.70;63.00;;;;;;6188518;23;20000;-73
2022/07/05 00:39:12;;;;;;;0.65;0.28;;;19.80;63.00;;;;;;6158353;23;20020;-73
2022/07/05 00:41:37;;;;;;;0.70;0.32;;;19.70;63.00;;;;;;6184679;23;20442;-73
2022/07/05 00:44:05;;;;;;;0.93;0.15;;;19.70;63.10;;;;;;6184855;23;20005;-73
2022/07/05 00:46:31;;;;;;;0.73;0.20;;;19.70;63.10;;;;;;6158933;23;20437;-73
2022/07/05 00:49:00;;;;;;;0.90;0.20;;;19.70;63.20;;;;;;6184761;23;20004;-73
2022/07/05 00:51:26;;;;;;;0.47;0.30;;;19.70;63.30;;;;;;6183349;23;20001;-73
2022/07/05 00:53:51;;;;;;;0.22;0.13;;;19.70;63.30;;;;;;6158623;23;20072;-73
2022/07/05 00:56:18;;;;;;;0.52;0.20;;;19.70;63.40;;;;;;6183078;23;20059;-73
2022/07/05 00:58:43;;;;;;;0.63;0.30;;;19.70;63.40;;;;;;6184755;23;20438;-73
2022/07/05 01:01:10;;;;;;;0.20;0.13;;;19.70;63.40;;;;;;6184639;23;20051;-73
2022/07/05 01:03:35;;;;;;;2.28;0.40;;;19.70;63.30;;;;;;6183254;23;20051;-73
2022/07/05 01:06:01;;;;;;;0.20;0.20;;;19.70;63.30;;;;;;6183138;23;20083;-73
2022/07/05 01:08:27;;;;;;;0.47;0.20;;;19.70;63.50;;;;;;6158616;23;20029;-73
2022/07/05 01:10:52;;;;;;;0.40;0.20;;;19.70;63.60;;;;;;6182941;23;20460;-73
2022/07/05 01:13:18;;;;;;;0.98;0.40;;;19.70;63.60;;;;;;6158599;23;20061;-73
2022/07/05 01:15:44;;;;;;;0.95;0.20;;;19.70;63.70;;;;;;6158437;23;20001;-73
2022/07/05 01:18:09;;;;;;;0.30;0.20;;;19.70;63.90;;;;;;6158460;23;20005;-73
2022/07/05 01:20:35;;;;;;;0.60;0.20;;;19.70;63.80;;;;;;6184518;23;20001;-73
2022/07/05 01:23:02;;;;;;;0.57;0.13;;;19.70;63.80;;;;;;6182964;23;20040;-73
2022/07/05 01:25:28;;;;;;;0.68;0.20;;;19.70;63.80;;;;;;6184518;23;20028;-73
2022/07/05 01:27:54;;;;;;;0.25;0.25;;;19.70;63.90;;;;;;6158399;23;20001;-73
2022/07/05 01:30:20;;;;;;;1.13;0.20;;;19.70;63.80;;;;;;6184422;23;19998;-73
2022/07/05 01:32:45;;;;;;;0.65;0.30;;;19.70;63.70;;;;;;6183174;23;20001;-73
2022/07/05 01:35:11;;;;;;;0.80;0.28;;;19.70;63.60;;;;;;6184353;23;20009;-73
2022/07/05 01:37:37;;;;;;;0.20;0.10;;;19.70;63.70;;;;;;6182876;23;20009;-73
2022/07/05 01:40:03;;;;;;;1.08;0.30;;;19.70;63.90;;;;;;6182653;23;20001;-73
2022/07/05 01:42:29;;;;;;;0.85;0.30;;;19.70;63.90;;;;;;6157964;23;20319;-73
2022/07/05 01:44:56;;;;;;;0.20;0.15;;;19.70;64.00;;;;;;6134454;23;20017;-73
2022/07/05 01:47:22;;;;;;;0.10;0.10;;;19.70;63.90;;;;;;6184805;23;20307;-73
2022/07/05 01:49:48;;;;;;;0.60;0.25;;;19.70;63.90;;;;;;6184288;23;19997;-73
2022/07/05 01:52:14;;;;;;;0.68;0.20;;;19.70;63.90;;;;;;6182888;23;20354;-73
2022/07/05 01:54:39;;;;;;;0.10;0.10;;;19.70;63.90;;;;;;6183036;23;20001;-73
2022/07/05 01:57:05;;;;;;;1.63;0.43;;;19.60;64.00;;;;;;6182788;23;20001;-73
2022/07/05 01:59:34;;;;;;;0.32;0.20;;;19.70;64.00;;;;;;6183141;23;20001;-73
2022/07/05 02:02:00;;;;;;;0.20;0.20;;;19.70;63.90;;;;;;6182855;23;20005;-73
2022/07/05 02:04:26;;;;;;;0.38;0.17;;;19.60;64.00;;;;;;6184144;23;20385;-73
2022/07/05 02:06:51;;;;;;;1.25;0.15;;;19.60;63.90;;;;;;6182656;23;20449;-73
2022/07/05 02:09:17;;;;;;;0.80;0.22;;;19.60;64.00;;;;;;6184702;23;19997;-73
2022/07/05 02:11:43;;;;;;;0.35;0.20;;;19.70;63.90;;;;;;6184406;23;20008;-73
2022/07/05 02:14:08;;;;;;;0.25;0.13;;;19.60;63.80;;;;;;6182855;23;20005;-73
2022/07/05 02:16:34;;;;;;;0.40;0.20;;;19.70;63.90;;;;;;6182871;23;20072;-73
2022/07/05 02:18:59;;;;;;;0.20;0.20;;;19.70;63.90;;;;;;6184115;23;20072;-73
2022/07/05 02:21:25;;;;;;;0.35;0.20;;;19.70;63.90;;;;;;6157946;23;20001;-73
2022/07/05 02:23:51;;;;;;;0.68;0.20;;;19.70;64.00;;;;;;6182692;23;20342;-73
2022/07/05 02:26:16;;;;;;;0.52;0.13;;;19.60;64.00;;;;;;6184100;23;19997;-73
2022/07/05 02:28:42;;;;;;;1.02;0.20;;;19.60;64.00;;;;;;6182797;23;20342;-73
2022/07/05 02:31:08;;;;;;;0.10;0.10;;;19.60;64.00;;;;;;6157969;23;20001;-73
2022/07/05 02:33:33;;;;;;;0.25;0.10;;;19.60;64.10;;;;;;6158169;23;20012;-73
2022/07/05 02:36:07;;;;;;;0.20;0.20;;;19.60;64.20;;;;;;6182373;23;20011;-73
2022/07/05 02:38:33;;;;;;;0.70;0.10;;;19.60;64.20;;;;;;6201786;23;20488;-73
2022/07/05 02:40:59;;;;;;;1.13;0.25;;;19.60;64.10;;;;;;6187585;23;20059;-73
2022/07/05 02:43:24;;;;;;;0.10;0.10;;;19.60;64.10;;;;;;6187806;23;20512;-73
2022/07/05 02:45:50;;;;;;;0.20;0.20;;;19.60;64.10;;;;;;6214162;23;20084;-73
2022/07/05 02:48:15;;;;;;;1.38;0.32;;;19.60;64.10;;;;;;6214392;23;20001;-73
2022/07/05 02:50:41;;;;;;;0.40;0.38;;;19.60;64.10;;;;;;6215737;23;19992;-73
2022/07/05 02:53:07;;;;;;;1.15;0.20;;;19.60;64.10;;;;;;6215726;23;20001;-73
2022/07/05 02:55:32;;;;;;;0.57;0.20;;;19.60;64.10;;;;;;6216164;23;20452;-73
2022/07/05 02:57:58;;;;;;;0.20;0.20;;;19.60;64.20;;;;;;6215984;23;20360;-73
2022/07/05 03:00:24;;;;;;;0.43;0.20;;;19.60;64.20;;;;;;6189568;23;20075;-73
2022/07/05 03:02:49;;;;;;;0.43;0.32;;;19.60;64.10;;;;;;6215712;23;20498;-73
2022/07/05 03:05:15;;;;;;;0.20;0.20;;;19.70;64.10;;;;;;6188980;23;20007;-73
2022/07/05 03:07:40;;;;;;;0.47;0.30;;;19.60;64.00;;;;;;6215956;23;20075;-73
2022/07/05 03:10:06;;;;;;;0.80;0.32;;;19.60;64.10;;;;;;6189460;23;19997;-73
2022/07/05 03:12:32;;;;;;;0.38;0.20;;;19.60;64.10;;;;;;6189306;23;20007;-73
2022/07/05 03:14:57;;;;;;;0.13;0.10;;;19.60;64.10;;;;;;6215777;23;20003;-73
2022/07/05 03:17:23;;;;;;;0.45;0.20;;;19.60;64.20;;;;;;6216011;23;20001;-73
2022/07/05 03:19:49;;;;;;;0.20;0.20;;;19.60;64.20;;;;;;6189315;23;20001;-73
2022/07/05 03:22:14;;;;;;;0.75;0.20;;;19.60;64.20;;;;;;6189068;23;20083;-73
2022/07/05 03:24:40;;;;;;;1.85;0.40;;;19.60;64.20;;;;;;6215809;23;20007;-73
2022/07/05 03:27:05;;;;;;;0.50;0.30;;;19.60;64.20;;;;;;6189204;23;20007;-73
2022/07/05 03:29:31;;;;;;;0.15;0.15;;;19.60;64.30;;;;;;6189172;23;20059;-73
2022/07/05 03:31:57;;;;;;;0.95;0.45;;;19.60;64.30;;;;;;6189321;23;20426;-73
2022/07/05 03:34:22;;;;;;;0.75;0.20;;;19.60;64.30;;;;;;6215263;23;20469;-73
2022/07/05 03:36:48;;;;;;;0.30;0.20;;;19.60;64.30;;;;;;6215727;23;20012;-73
2022/07/05 03:39:14;;;;;;;0.55;0.20;;;19.60;64.40;;;;;;6215312;23;20353;-73
2022/07/05 03:41:39;;;;;;;0.75;0.30;;;19.60;64.50;;;;;;6215453;23;20005;-73
2022/07/05 03:44:05;;;;;;;0.20;0.20;;;19.60;64.60;;;;;;6215630;23;20005;-73
2022/07/05 03:46:30;;;;;;;0.47;0.30;;;19.60;64.50;;;;;;6215467;23;20003;-73
2022/07/05 03:48:56;;;;;;;0.50;0.30;;;19.60;64.50;;;;;;6215245;23;20076;-73
2022/07/05 03:51:22;;;;;;;0.22;0.20;;;19.50;64.50;;;;;;6215656;23;20001;-73
2022/07/05 03:53:47;;;;;;;0.55;0.30;;;19.60;64.60;;;;;;6215366;23;20345;-73
2022/07/05 03:56:14;;;;;;;0.90;0.22;;;19.60;64.50;;;;;;6215297;23;20390;-73
2022/07/05 03:58:39;;;;;;;1.35;0.30;;;19.60;64.50;;;;;;6189379;23;19996;-73
2022/07/05 04:01:05;;;;;;;0.28;0.20;;;19.50;64.50;;;;;;6214875;23;20011;-73
2022/07/05 04:03:31;;;;;;;0.90;0.20;;;19.50;64.50;;;;;;6215027;23;20430;-73
2022/07/05 04:05:56;;;;;;;0.28;0.28;;;19.50;64.40;;;;;;6215300;23;19993;-73
2022/07/05 04:08:22;;;;;;;1.10;0.38;;;19.50;64.40;;;;;;6215188;23;20004;-73
2022/07/05 04:10:48;;;;;;;0.47;0.40;;;19.60;64.40;;;;;;6189137;23;20051;-73
2022/07/05 04:13:13;;;;;;;0.47;0.20;;;19.50;64.30;;;;;;6188487;23;20344;-73
2022/07/05 04:15:39;;;;;;;0.57;0.28;;;19.50;64.30;;;;;;6215290;23;20004;-73
2022/07/05 04:18:05;;;;;;;0.30;0.30;;;19.50;64.30;;;;;;6214877;23;20467;-73
2022/07/05 04:20:31;;;;;;;0.47;0.40;;;19.50;64.20;;;;;;6188735;23;20001;-73
2022/07/05 04:22:56;;;;;;;0.75;0.30;;;19.50;64.20;;;;;;6188680;23;20008;-73
2022/07/05 04:25:22;;;;;;;0.95;0.30;;;19.50;64.10;;;;;;6215173;23;20001;-73
2022/07/05 04:27:49;;;;;;;1.63;0.30;;;19.50;64.10;;;;;;6215222;23;20437;-73
2022/07/05 04:30:15;;;;;;;1.13;0.20;;;19.50;64.10;;;;;;6163799;23;20467;-73
2022/07/05 04:32:41;;;;;;;0.40;0.30;;;19.50;64.10;;;;;;6215072;23;20064;-73
2022/07/05 04:35:07;;;;;;;0.70;0.20;;;19.50;64.10;;;;;;6188338;23;20425;-73
2022/07/05 04:37:32;;;;;;;0.20;0.20;;;19.50;64.10;;;;;;6163726;23;20016;-73
2022/07/05 04:39:58;;;;;;;0.30;0.30;;;19.50;64.10;;;;;;6215133;23;20398;-73
2022/07/05 04:42:23;;;;;;;0.43;0.20;;;19.50;64.00;;;;;;6214758;23;20032;-73
2022/07/05 04:44:49;;;;;;;1.48;0.28;;;19.50;64.00;;;;;;6215009;23;20436;-73
2022/07/05 04:47:15;;;;;;;0.65;0.40;;;19.50;64.00;;;;;;6214662;23;20032;-73
2022/07/05 04:49:40;;;;;;;0.30;0.30;;;19.50;64.00;;;;;;6188632;23;20047;-73
2022/07/05 04:52:06;;;;;;;0.35;0.20;;;19.50;64.00;;;;;;6188476;23;20000;-73
2022/07/05 04:54:32;;;;;;;0.50;0.50;;;19.50;64.00;;;;;;6163494;23;20012;-73
2022/07/05 04:56:57;;;;;;;0.88;0.32;;;19.50;64.00;;;;;;6188397;23;20345;-73
2022/07/05 04:59:23;;;;;;;1.02;0.22;;;19.50;64.00;;;;;;6214685;23;20012;-73
2022/07/05 05:01:48;;;;;;;0.13;0.13;;;19.50;64.00;;;;;;6214606;23;20005;-73
2022/07/05 05:04:14;;;;;;;1.67;0.28;;;19.50;64.00;;;;;;6214438;23;20009;-73
2022/07/05 05:06:39;;;;;;;0.60;0.20;;;19.50;64.00;;;;;;6214899;23;20035;-73
2022/07/05 05:09:05;;;;;;;0.25;0.10;;;19.50;64.00;;;;;;6214586;23;20080;-73
2022/07/05 05:11:31;;;;;;;0.98;0.30;;;19.40;64.00;;;;;;6214628;23;19996;-73
2022/07/05 05:13:56;;;;;;;1.02;0.30;;;19.50;64.00;;;;;;6188171;23;20009;-73
2022/07/05 05:16:22;;;;;;;1.45;0.35;;;19.40;64.10;;;;;;6214192;23;20028;-73
2022/07/05 05:18:47;;;;;;;0.70;0.30;;;19.50;64.00;;;;;;6188353;23;20001;-73
2022/07/05 05:21:13;;;;;;;0.47;0.20;;;19.50;64.00;;;;;;6214482;23;20008;-73
2022/07/05 05:23:39;;;;;;;1.20;0.40;;;19.40;64.10;;;;;;6188085;23;20055;-73
2022/07/05 05:26:04;;;;;;;2.38;0.30;;;19.40;64.20;;;;;;6188272;23;20334;-73
2022/07/05 05:28:30;;;;;;;0.38;0.30;;;19.40;64.30;;;;;;6214410;23;20000;-73
2022/07/05 05:30:55;;;;;;;0.30;0.30;;;19.40;64.40;;;;;;6214377;23;20441;-73
2022/07/05 05:33:21;;;;;;;1.27;0.22;;;19.30;64.40;;;;;;6214356;23;20012;-73
2022/07/05 05:35:47;;;;;;;0.73;0.32;;;19.40;64.60;;;;;;6188073;23;20004;-73
2022/07/05 05:38:12;;;;;;;0.45;0.30;;;19.40;64.70;;;;;;6214196;23;20461;-73
2022/07/05 05:40:38;;;;;;;1.27;0.50;;;19.30;64.60;;;;;;6188198;23;20004;-73
2022/07/05 05:43:04;;;;;;;1.33;0.20;;;19.40;64.60;;;;;;6214151;23;20467;-73
2022/07/05 05:45:30;;;;;;;0.45;0.25;;;19.40;64.60;;;;;;6163007;23;20005;-73
2022/07/05 05:47:56;;;;;;;1.23;0.38;;;19.30;64.50;;;;;;6214566;23;20001;-73
2022/07/05 05:50:33;;;;;;;0.70;0.30;;;19.30;64.60;;;;;;6187828;23;20004;-73
2022/07/05 05:52:58;;;;;;;1.10;0.28;;;19.40;64.80;;;;;;6188668;23;20342;-73
2022/07/05 05:55:25;;;;;;;0.30;0.30;;;19.40;64.80;;;;;;6162995;23;20000;-73
2022/07/05 05:57:50;;;;;;;0.25;0.25;;;19.30;64.90;;;;;;6187972;23;20007;-73
2022/07/05 06:00:16;;;;;;;0.50;0.30;;;19.40;65.00;;;;;;6162799;23;20009;-73
2022/07/05 06:02:43;;;;;;;0.65;0.30;;;19.30;64.80;;;;;;6214314;23;20008;-73
2022/07/05 06:05:08;;;;;;;0.20;0.20;;;19.30;64.80;;;;;;6187812;23;19996;-73
2022/07/05 06:07:52;;;;;;;0.63;0.30;;;19.30;64.90;;;;;;6214325;23;20005;-73
2022/07/05 06:10:19;;;;;;;0.32;0.30;;;19.30;64.90;;;;;;6214263;23;20076;-73
2022/07/05 06:12:45;;;;;;;0.22;0.22;;;19.30;64.90;;;;;;6163558;23;19997;-73
2022/07/05 06:15:11;;;;;;;0.57;0.20;;;19.30;65.10;;;;;;6213896;23;20001;-73
2022/07/05 06:17:37;;;;;;;0.73;0.60;;;19.30;65.00;;;;;;6214181;23;20000;-73
2022/07/05 06:20:07;;;;;;;0.60;0.32;;;19.30;65.00;;;;;;6214516;23;20404;-73
2022/07/05 06:22:33;;;;;;;0.20;0.20;;;19.30;64.80;;;;;;6187997;23;20008;-73
2022/07/05 06:24:59;;;;;;;0.98;0.30;;;19.30;64.80;;;;;;6164545;23;20009;-73
2022/07/05 06:27:24;;;;;;;1.40;0.32;;;19.40;64.90;;;;;;6216202;23;20495;-73
2022/07/05 06:29:50;;;;;;;0.28;0.25;;;19.30;64.90;;;;;;6189382;23;20072;-73
2022/07/05 06:32:16;;;;;;;0.85;0.28;;;19.40;65.10;;;;;;6216227;23;20079;-73
2022/07/05 06:34:41;;;;;;;1.25;0.30;;;19.30;65.00;;;;;;6216154;23;20011;-73
2022/07/05 06:37:07;;;;;;;0.85;0.40;;;19.30;65.10;;;;;;6216118;23;20004;-73
2022/07/05 06:39:33;;;;;;;0.93;0.32;;;19.30;65.10;;;;;;6215987;23;20027;-73
2022/07/05 06:41:59;;;;;;;1.30;0.40;;;19.30;65.20;;;;;;6216496;23;20028;-73
2022/07/05 06:44:24;;;;;;;0.40;0.22;;;19.30;65.20;;;;;;6215716;23;20032;-73
2022/07/05 06:46:50;;;;;;;0.32;0.30;;;19.30;65.10;;;;;;6216408;23;20437;-73
2022/07/05 06:49:16;;;;;;;0.68;0.40;;;19.30;65.00;;;;;;6189391;23;20001;-73
2022/07/05 06:51:41;;;;;;;0.30;0.30;;;19.30;65.10;;;;;;6189751;23;20007;-73
2022/07/05 06:54:07;;;;;;;0.10;0.10;;;19.30;65.00;;;;;;6189720;23;20004;-73
2022/07/05 06:56:33;;;;;;;0.35;0.30;;;19.30;65.20;;;;;;6216024;23;20028;-73
2022/07/05 06:58:58;;;;;;;0.63;0.32;;;19.20;65.00;;;;;;6215596;23;20460;-73
2022/07/05 07:01:24;;;;;;;1.48;0.38;;;19.20;65.00;;;;;;6216043;23;20012;-73
2022/07/05 07:03:49;;;;;;;1.65;0.40;;;19.20;65.00;;;;;;6189548;23;20009;-73
2022/07/05 07:06:15;;;;;;;0.77;0.40;;;19.20;65.10;;;;;;6215860;23;20024;-73
2022/07/05 07:11:25;;;;;;;1.45;0.30;;;19.20;64.90;;;;;;6215605;23;20395;-73
2022/07/05 07:13:50;;;;;;;0.70;0.35;;;19.20;64.90;;;;;;6215923;23;20453;-73
2022/07/05 07:16:16;;;;;;;1.98;0.52;;;19.20;64.80;;;;;;6215950;23;20004;-73
2022/07/05 07:18:41;;;;;;;0.52;0.25;;;19.20;64.80;;;;;;6215722;23;20005;-73
2022/07/05 07:21:07;;;;;;;1.48;0.40;;;19.30;64.80;;;;;;6189401;23;20337;-73
2022/07/05 07:23:33;;;;;;;0.68;0.30;;;19.30;64.80;;;;;;6215500;23;20051;-73
2022/07/05 07:25:58;;;;;;;1.13;0.35;;;19.20;64.70;;;;;;6215591;23;20055;-73
2022/07/05 07:28:24;;;;;;;0.28;0.20;;;19.20;64.70;;;;;;6215661;23;20341;-73
2022/07/05 07:30:49;;;;;;;1.42;0.50;;;19.20;64.60;;;;;;6215680;23;20000;-73
2022/07/05 07:33:15;;;;;;;0.40;0.30;;;19.30;64.60;;;;;;6164455;23;20464;-73
2022/07/05 07:35:41;;;;;;;0.43;0.20;;;19.20;64.50;;;;;;6188994;23;20004;-73
2022/07/05 07:38:06;;;;;;;0.90;0.40;;;19.20;64.10;;;;;;6189199;23;20338;-73
2022/07/05 07:40:32;;;;;;;0.68;0.35;;;19.20;63.50;;;;;;6214984;23;20008;-73
2022/07/05 07:42:58;;;;;;;0.77;0.20;;;19.20;63.40;;;;;;6215354;23;20384;-73
2022/07/05 07:45:23;;;;;;;0.65;0.30;;;19.20;63.50;;;;;;6215590;23;20129;-73
2022/07/05 07:47:49;;;;;;;0.73;0.40;;;19.20;63.60;;;;;;6215580;23;20001;-73
2022/07/05 07:50:14;;;;;;;0.40;0.30;;;19.20;63.80;;;;;;6189081;23;20005;-73
2022/07/05 07:52:40;;;;;;;0.55;0.30;;;19.20;63.90;;;;;;6188915;23;19996;-73
2022/07/05 07:55:06;;;;;;;0.32;0.20;;;19.20;64.00;;;;;;6215076;23;20007;-73
2022/07/05 07:57:32;;;;;;;0.22;0.10;;;19.20;63.90;;;;;;6215432;23;20066;-73
2022/07/05 07:59:58;;;;;;;0.57;0.30;;;19.20;63.80;;;;;;6215559;23;20013;-73
2022/07/05 08:02:23;;;;;;;1.00;0.30;;;19.20;63.80;;;;;;6188950;23;20088;-73
2022/07/05 08:04:53;;;;;;;0.20;0.20;;;19.20;63.90;;;;;;6215316;23;20011;-73
2022/07/05 08:07:19;;;;;;;0.70;0.30;;;19.20;64.00;;;;;;6189117;23;20532;-73
2022/07/05 08:09:45;;;;;;;0.30;0.20;;;19.20;63.90;;;;;;6188647;23;20043;-73
2022/07/05 08:12:10;;;;;;;1.55;0.32;;;19.20;63.80;;;;;;6189143;23;19997;-73
2022/07/05 08:14:36;;;;;;;0.30;0.22;;;19.20;63.70;;;;;;6188759;23;20000;-73
2022/07/05 08:17:02;;;;;;;0.25;0.20;;;19.20;63.70;;;;;;6215292;23;20337;-73
2022/07/05 08:22:11;;;;;;;0.70;0.20;;;19.20;63.50;;;;;;6192857;23;20016;-73
2022/07/05 08:24:37;;;;;;;0.43;0.22;;;19.20;63.40;;;;;;6214691;23;20005;-73
2022/07/05 08:27:03;;;;;;;0.57;0.28;;;19.20;63.30;;;;;;6164069;23;20345;-73
2022/07/05 08:29:29;;;;;;;1.45;0.43;;;19.20;63.20;;;;;;6215149;23;19996;-73
2022/07/05 08:31:54;;;;;;;0.75;0.47;;;19.20;63.10;;;;;;6163565;23;20059;-73
2022/07/05 08:34:20;;;;;;;2.35;0.30;;;19.10;63.20;;;;;;6215135;23;20448;-73
2022/07/05 08:36:46;;;;;;;1.58;0.30;;;19.20;63.20;;;;;;6188432;23;20079;-73
2022/07/05 08:39:12;;;;;;;0.77;0.32;;;19.20;63.00;;;;;;6214685;23;20357;-73
2022/07/05 08:41:40;;;;;;;0.43;0.30;;;19.20;63.00;;;;;;6214980;23;20000;-73
2022/07/05 08:44:06;;;;;;;0.30;0.20;;;19.20;63.00;;;;;;6188526;23;20004;-73
2022/07/05 08:46:32;;;;;;;0.85;0.20;;;19.20;63.00;;;;;;6214428;23;20444;-73
2022/07/05 08:49:03;;;;;;;0.50;0.30;;;19.20;62.40;;;;;;6163929;23;20075;-73
2022/07/05 08:51:29;;;;;;;0.38;0.20;;;19.20;62.60;;;;;;6164488;23;20020;-73
2022/07/05 08:53:57;;;;;;;1.40;0.30;;;19.20;62.20;;;;;;6188036;23;20032;-73
2022/07/05 08:56:23;;;;;;;1.65;0.40;;;19.20;63.00;;;;;;6214852;23;20001;-73
2022/07/05 08:58:51;;;;;;;0.15;0.13;;;19.20;63.10;;;;;;6188421;23;20058;-73
2022/07/05 09:01:17;;;;;;;0.52;0.28;;;19.30;63.20;;;;;;6214914;23;20001;-73
2022/07/05 09:03:46;;;;;;;0.25;0.20;;;19.30;63.10;;;;;;6188087;23;20011;-73
2022/07/05 09:06:18;;;;;;;1.08;0.43;;;19.30;63.20;;;;;;6189186;23;20051;-73
2022/07/05 09:08:43;;;;;;;0.45;0.20;;;19.30;63.10;;;;;;6164170;23;20039;-73
2022/07/05 09:11:14;;;;;;;0.20;0.20;;;19.40;63.10;;;;;;6163675;23;20429;-73
2022/07/05 09:13:42;;;;;;;0.55;0.20;;;19.30;63.10;;;;;;6164630;23;20024;-73
2022/07/05 09:16:08;;;;;;;1.08;0.30;;;19.30;62.90;;;;;;6214982;23;20005;-73
2022/07/05 09:18:40;;;;;;;1.75;0.30;;;19.30;62.40;;;;;;6163469;23;20083;-73
2022/07/05 09:21:12;;;;;;;0.17;0.10;;;19.30;62.30;;;;;;6188263;23;20140;-73
2022/07/05 09:23:38;;;;;;;0.00;0.00;;;19.30;62.50;;;;;;6214178;23;20001;-73
2022/07/05 09:26:03;;;;;;;0.32;0.20;;;19.30;62.50;;;;;;6188244;23;20080;-73
2022/07/05 09:28:29;;;;;;;0.30;0.20;;;19.30;62.30;;;;;;6213697;23;20000;-73
2022/07/05 09:30:55;;;;;;;0.77;0.30;;;19.30;62.20;;;;;;6214517;23;19996;-73
2022/07/05 09:33:20;;;;;;;0.15;0.15;;;19.30;62.20;;;;;;6188304;23;20001;-73
2022/07/05 09:35:54;;;;;;;0.50;0.20;;;19.30;62.20;;;;;;6214388;23;20005;-73
2022/07/05 09:38:21;;;;;;;0.40;0.20;;;19.30;62.50;;;;;;6214224;23;20069;-73
2022/07/05 09:40:54;;;;;;;0.20;0.20;;;19.30;63.40;;;;;;6188310;23;20004;-73
2022/07/05 09:43:27;;;;;;;0.40;0.17;;;19.40;62.80;;;;;;6188183;23;20004;-73
2022/07/05 09:45:59;;;;;;;0.20;0.20;;;19.40;62.30;;;;;;6187873;23;20027;-73
2022/07/05 09:48:26;;;;;;;0.50;0.10;;;19.40;62.20;;;;;;6214476;23;20441;-73
2022/07/05 09:50:52;;;;;;;0.40;0.10;;;19.40;62.10;;;;;;6214223;23;19997;-73
2022/07/05 09:53:19;;;;;;;0.10;0.10;;;19.40;62.10;;;;;;6188132;23;20005;-73
2022/07/05 09:56:04;;;;;;;0.30;0.20;;;19.40;62.20;;;;;;6163274;23;20062;-73
2022/07/05 09:58:30;;;;;;;0.22;0.20;;;19.40;62.20;;;;;;6163905;23;20058;-73
2022/07/05 10:00:56;;;;;;;0.20;0.20;;;19.40;62.10;;;;;;6190176;23;20000;-73
2022/07/05 10:03:21;;;;;;;0.30;0.20;;;19.40;61.80;;;;;;6165490;23;20001;-73
2022/07/05 10:05:47;;;;;;;1.98;0.22;;;19.40;61.80;;;;;;6216148;23;20012;-73
2022/07/05 10:08:13;;;;;;;0.17;0.17;;;19.50;61.90;;;;;;6216481;23;20001;-73
2022/07/05 10:10:39;;;;;;;0.73;0.20;;;19.40;62.10;;;;;;6190312;23;20001;-73
2022/07/05 10:13:06;;;;;;;0.20;0.20;;;19.50;62.50;;;;;;6190149;23;20000;-73
2022/07/05 10:15:35;;;;;;;0.47;0.22;;;19.50;62.00;;;;;;6216707;23;20001;-73
2022/07/05 10:18:04;;;;;;;0.20;0.10;;;19.50;61.90;;;;;;6165651;23;20023;-73
2022/07/05 10:20:35;;;;;;;0.52;0.20;;;19.50;61.90;;;;;;6216213;23;20329;-73
2022/07/05 10:23:04;;;;;;;0.20;0.20;;;19.50;61.90;;;;;;6216385;23;19997;-73
2022/07/05 10:25:30;;;;;;;0.95;0.50;;;19.40;61.30;;;;;;6165298;23;20235;-73
2022/07/05 10:27:58;;;;;;;0.28;0.28;;;19.40;61.40;;;;;;6190023;23;20001;-73
2022/07/05 10:30:24;;;;;;;0.20;0.20;;;19.50;61.50;;;;;;6190031;23;20001;-73
2022/07/05 10:32:49;;;;;;;0.52;0.30;;;19.50;61.40;;;;;;6189971;23;19997;-73
2022/07/05 10:35:18;;;;;;;1.13;0.20;;;19.50;61.40;;;;;;6164600;23;20011;-73
2022/07/05 10:37:44;;;;;;;0.60;0.30;;;19.50;61.40;;;;;;6216072;23;20023;-73
2022/07/05 10:40:10;;;;;;;0.10;0.10;;;19.50;61.50;;;;;;6165395;23;20025;-73
2022/07/05 10:42:50;;;;;;;0.30;0.22;;;19.40;61.50;;;;;;6189747;23;20433;-73
2022/07/05 10:45:26;;;;;;;0.35;0.20;;;19.40;61.40;;;;;;6191999;23;20034;-73
2022/07/05 10:48:13;;;;;;;0.20;0.20;;;19.40;61.40;;;;;;6190517;23;19996;-73
2022/07/05 10:50:58;;;;;;;0.30;0.30;;;19.50;61.60;;;;;;6216028;23;20075;-73
2022/07/05 10:53:29;;;;;;;0.10;0.10;;;19.50;61.70;;;;;;6165132;23;20008;-73
2022/07/05 10:56:04;;;;;;;0.28;0.20;;;19.50;61.50;;;;;;6189945;23;20012;-73
2022/07/05 10:58:30;;;;;;;0.20;0.20;;;19.50;61.40;;;;;;6216115;23;20449;-73
2022/07/05 11:01:17;;;;;;;0.73;0.20;;;19.50;61.50;;;;;;6215935;23;20001;-73
2022/07/05 11:03:55;;;;;;;0.45;0.30;;;19.50;61.60;;;;;;6215696;23;20000;-73
2022/07/05 11:06:29;;;;;;;1.42;0.30;;;19.50;61.60;;;;;;6216006;23;19997;-73
2022/07/05 11:09:02;;;;;;;0.60;0.28;;;19.50;61.60;;;;;;6215719;23;20007;-73
2022/07/05 11:11:35;;;;;;;0.45;0.25;;;19.50;61.70;;;;;;6216126;23;20000;-73
2022/07/05 11:14:01;;;;;;;;;;;19.50;61.60;;;;;;6216338;23;20012;-73
2022/07/05 11:16:36;;;;;;;1.23;0.43;;;19.50;61.40;;;;;;6215037;23;19947;-73
2022/07/05 11:19:12;;;;;;;0.22;0.20;;;19.50;61.30;;;;;;6188891;23;20072;-73
2022/07/05 11:21:40;;;;;;;0.52;0.32;;;19.50;61.40;;;;;;6189612;23;20001;-73
2022/07/05 11:24:31;;;;;;;1.42;0.20;;;19.50;61.70;;;;;;6215729;23;20005;-73
2022/07/05 11:27:01;;;;;;;0.28;0.28;;;19.50;61.70;;;;;;6189322;23;20031;-73
2022/07/05 11:29:51;;;;;;;0.20;0.20;;;19.50;61.50;;;;;;6189475;23;20024;-73
2022/07/05 11:32:34;;;;;;;0.30;0.30;;;19.50;61.70;;;;;;6164233;23;20001;-73
2022/07/05 11:35:19;;;;;;;0.10;0.10;;;19.50;61.90;;;;;;6189246;23;20454;-73
2022/07/05 11:38:05;;;;;;;0.10;0.10;;;19.50;61.60;;;;;;6189083;23;20055;-73
2022/07/05 11:40:32;;;;;;;0.93;0.43;;;19.50;61.90;;;;;;6189315;23;20007;-73
2022/07/05 11:42:58;;;;;;;1.30;0.20;;;19.50;62.00;;;;;;6189294;23;20005;-73
2022/07/05 11:45:24;;;;;;;1.27;0.20;;;19.60;62.00;;;;;;6215861;23;20111;-73
2022/07/05 11:47:52;;;;;;;0.38;0.20;;;19.60;62.00;;;;;;6188708;23;20001;-73
2022/07/05 11:50:17;;;;;;;0.20;0.20;;;19.60;61.50;;;;;;6164745;23;20429;-73
2022/07/05 11:52:43;;;;;;;0.20;0.20;;;19.60;61.50;;;;;;6164255;23;20000;-73
2022/07/05 11:55:09;;;;;;;0.77;0.20;;;19.60;61.50;;;;;;6189034;23;20011;-73
2022/07/05 11:57:36;;;;;;;0.80;0.20;;;19.60;61.80;;;;;;6215568;23;20005;-73
2022/07/05 12:00:03;;;;;;;0.43;0.22;;;19.60;61.90;;;;;;6164360;23;20009;-73
2022/07/05 12:02:29;;;;;;;0.43;0.28;;;19.60;61.90;;;;;;6188913;23;20000;-73
2022/07/05 12:04:56;;;;;;;0.60;0.30;;;19.60;61.90;;;;;;6188996;23;20005;-73
2022/07/05 12:07:28;;;;;;;0.40;0.10;;;19.60;61.70;;;;;;6164317;23;20024;-73
2022/07/05 12:12:43;;;;;;;0.68;0.20;;;19.60;61.90;;;;;;6192984;23;20222;-73
2022/07/05 12:15:09;;;;;;;0.85;0.20;;;19.60;61.90;;;;;;6189989;23;20032;-73
2022/07/05 12:17:36;;;;;;;0.57;0.30;;;19.60;62.00;;;;;;6188848;23;20013;-73
2022/07/05 12:20:02;;;;;;;0.68;0.20;;;19.60;61.90;;;;;;6188950;23;20005;-73
2022/07/05 12:22:29;;;;;;;1.20;0.30;;;19.70;61.90;;;;;;6188437;23;20437;-73
2022/07/05 12:24:55;;;;;;;0.85;0.30;;;19.70;61.80;;;;;;6188588;23;20088;-73
2022/07/05 12:27:20;;;;;;;0.60;0.20;;;19.70;61.60;;;;;;6215445;23;20032;-73
2022/07/05 12:29:46;;;;;;;0.60;0.28;;;19.70;61.70;;;;;;6215250;23;19997;-73
2022/07/05 12:32:12;;;;;;;0.30;0.30;;;19.70;61.80;;;;;;6163872;23;20008;-73
2022/07/05 12:34:37;;;;;;;0.22;0.20;;;19.70;61.70;;;;;;6215290;23;20005;-73
2022/07/05 12:37:03;;;;;;;0.30;0.30;;;19.70;61.70;;;;;;6214964;23;20075;-73
2022/07/05 12:39:29;;;;;;;2.03;0.30;;;19.70;61.60;;;;;;6188463;23;20461;-73
2022/07/05 12:41:56;;;;;;;1.70;0.50;;;19.70;61.70;;;;;;6188608;23;20013;-73
2022/07/05 12:44:21;;;;;;;0.65;0.30;;;19.70;61.60;;;;;;6215069;23;20444;-73
2022/07/05 12:46:51;;;;;;;0.98;0.47;;;19.70;61.80;;;;;;6188419;23;20026;-73
2022/07/05 12:49:17;;;;;;;0.93;0.40;;;19.70;61.90;;;;;;6165236;23;20377;-73
2022/07/05 12:51:43;;;;;;;0.47;0.30;;;19.70;61.70;;;;;;6215004;23;19997;-73
2022/07/05 12:59:57;;;;;;;1.05;0.45;;;19.80;62.00;;;;;;6171038;23;20021;-73